Al Taqaddum, Iraq

1:26 AM AST on August 21, 2014 (GMT +0300)
BAGHDAD INTL | Change Station
CLOSE
Current Station
Airport
Location: BAGHDAD INTL,
Elevation: 115 ft
Nearby Weather Stations

Elev 115 ft 33.26 °N, 44.23 °E | Updated 26 minutes ago

Partly Cloudy
Partly Cloudy
97 °F
Feels Like 97 °F
N
10
Wind Variable Wind from NNW

Today
High -- | Low -- °F
--% Chance of Precip.
Yesterday
High -- | Low -- °F
Precip. -- in
5:32 AM 6:44 PM
Waning Crescent, 19% visible
Pressure 29.74 in
Visibility 6.2 miles
Clouds Few 4000 ft
Dew Point 45 °F
Humidity 17%
Rainfall 0.00 in
Snow Depth Not available.
UV 0 out of 12
Pollen Not available.
Air Quality Not available.
Flu Activity Not available.
METAR ORBI 202200Z 34009KT 9999 FEW040 36/07 Q1007 NOSIG

More Conditions Fewer Conditions

Pressure 29.74 in
Visibility 6.2 miles
Clouds Few 4000 ft
Dew Point 45 °F
Humidity 17%
Rainfall 0.00 in
Snow Depth Not available.
UV 0 out of 12
Pollen Not available.
Air Quality Not available.
Flu Activity Not available.
METAR ORBI 202200Z 34009KT 9999 FEW040 36/07 Q1007 NOSIG

More Conditions Fewer Conditions

10-Day Weather Forecast

Almanac

Astronomy

Aug. 21, 2014 Rise Set
Actual Time 5:32 AM AST 6:44 PM AST
Civil Twilight 5:06 AM AST 7:10 PM AST
Nautical Twilight 4:35 AM AST 7:41 PM AST
Astronomical Twilight 4:03 AM AST 8:13 PM AST
Moon 1:48 AM AST (8/21) 3:53 PM AST (8/21)
Length of Visible Light 14h 04m
Length of Day
13h 12m
Tomorrow will be 1m 53s shorter.
Waning Crescent, 19% of the Moon is Illuminated
Aug 20
Waning Crescent
Aug 25
New
Sep 2
First Quarter
Sep 8
Full
Sep 15
Last Quarter

Yesterday's Extremes

Country Highs Country Lows

Community

WunderPhotos

Upload Photos

1,745,779 photos uploaded!

Nearby

Snow Depth

Not available.

Earthquake Activity

City Distance Mag. Time & Date
No recent earthquake activity has been reported nearby.
Minimum magnitude displayed is 2.5.

Coastal Water Temperatures

Place Temperature
No Stations Reporting

Nearby Weather Stations